createdAt,value
2023-12-20T00:01:33.481Z,28.10
2023-12-20T00:04:02.020Z,27.17
2023-12-20T00:06:30.469Z,27.50
2023-12-20T00:08:59.057Z,28.43
2023-12-20T00:11:27.376Z,26.80
2023-12-20T00:13:55.722Z,24.30
2023-12-20T00:16:25.483Z,27.70
2023-12-20T00:18:53.920Z,29.33
2023-12-20T00:21:22.327Z,28.87
2023-12-20T00:23:50.648Z,24.40
2023-12-20T00:26:19.045Z,27.97
2023-12-20T00:28:47.469Z,24.67
2023-12-20T00:31:16.009Z,26.13
2023-12-20T00:33:47.693Z,26.30
2023-12-20T00:36:16.138Z,28.50
2023-12-20T00:38:45.593Z,22.97
2023-12-20T00:41:13.995Z,31.03
2023-12-20T00:43:42.283Z,27.00
2023-12-20T00:46:10.830Z,29.63
2023-12-20T00:48:39.273Z,26.83
2023-12-20T00:51:09.333Z,23.20
2023-12-20T00:53:37.657Z,24.27
2023-12-20T00:56:06.443Z,22.87
2023-12-20T00:58:35.032Z,23.20
2023-12-20T01:01:03.640Z,24.48
2023-12-20T01:03:32.532Z,25.13
2023-12-20T01:06:01.106Z,25.67
2023-12-20T01:08:30.857Z,24.60
2023-12-20T01:10:59.227Z,23.95
2023-12-20T01:13:27.608Z,25.08
2023-12-20T01:15:56.753Z,28.07
2023-12-20T01:18:25.078Z,20.85
2023-12-20T01:20:53.465Z,24.13
2023-12-20T01:23:21.865Z,22.08
2023-12-20T01:25:51.618Z,24.55
2023-12-20T01:28:19.974Z,24.23
2023-12-20T01:30:48.490Z,20.88
2023-12-20T01:33:16.790Z,19.73
2023-12-20T01:35:45.134Z,27.08
2023-12-20T01:38:13.563Z,21.93
2023-12-20T01:40:41.915Z,21.23
2023-12-20T01:43:13.535Z,20.83
2023-12-20T01:45:42.412Z,20.20
2023-12-20T01:48:12.219Z,25.75
2023-12-20T01:50:41.829Z,18.48
2023-12-20T01:53:12.722Z,16.52
2023-12-20T01:55:42.760Z,22.65
2023-12-20T01:58:13.548Z,18.80
2023-12-20T02:00:42.328Z,17.93
2023-12-20T02:03:10.997Z,19.10
2023-12-20T02:05:41.165Z,19.38
2023-12-20T02:08:09.851Z,22.63
2023-12-20T02:10:38.271Z,19.45
2023-12-20T02:13:06.947Z,20.47
2023-12-20T02:15:38.083Z,26.30
2023-12-20T02:18:07.502Z,20.43
2023-12-20T02:20:35.999Z,18.27
2023-12-20T02:23:06.041Z,18.33
2023-12-20T02:25:34.393Z,23.25
2023-12-20T02:28:03.029Z,20.13
2023-12-20T02:30:31.823Z,24.73
2023-12-20T02:33:01.852Z,18.02
2023-12-20T02:35:30.246Z,18.30
2023-12-20T02:37:58.620Z,31.93
2023-12-20T02:40:28.419Z,17.07
2023-12-20T02:42:56.818Z,17.17
2023-12-20T02:45:25.176Z,17.67
2023-12-20T02:47:53.541Z,18.53
2023-12-20T02:50:22.051Z,16.87
2023-12-20T02:52:50.352Z,18.13
2023-12-20T02:55:18.700Z,12.33
2023-12-20T02:57:48.717Z,8.27
2023-12-20T03:00:17.870Z,15.00
2023-12-20T03:02:46.214Z,4.13
2023-12-20T03:05:14.687Z,7.15
2023-12-20T03:07:43.277Z,5.45
2023-12-20T03:10:19.806Z,8.43
2023-12-20T03:12:53.566Z,11.68
2023-12-20T03:15:21.985Z,11.55
2023-12-20T03:17:50.754Z,9.68
2023-12-20T03:20:19.480Z,10.13
2023-12-20T03:22:47.801Z,13.15
2023-12-20T03:25:16.607Z,21.67
2023-12-20T03:27:45.220Z,10.80
2023-12-20T03:30:15.787Z,9.82
2023-12-20T03:32:44.197Z,31.58
2023-12-20T03:35:12.721Z,10.23
2023-12-20T03:37:41.138Z,12.30
2023-12-20T03:40:10.752Z,9.50
2023-12-20T03:42:39.268Z,11.18
2023-12-20T03:45:09.339Z,8.98
2023-12-20T03:47:39.048Z,9.23
2023-12-20T03:50:09.127Z,8.75
2023-12-20T03:52:37.674Z,9.77
2023-12-20T03:55:07.371Z,9.52
2023-12-20T03:57:35.762Z,10.02
2023-12-20T04:00:04.302Z,9.73
2023-12-20T04:02:32.682Z,8.63
2023-12-20T04:05:02.431Z,8.75
2023-12-20T04:07:31.059Z,9.00
2023-12-20T04:09:59.568Z,9.02
2023-12-20T04:12:29.498Z,9.48
2023-12-20T04:14:58.223Z,9.20
2023-12-20T04:17:26.582Z,9.82
2023-12-20T04:19:55.158Z,9.75
2023-12-20T04:22:25.336Z,9.55
2023-12-20T04:24:53.760Z,11.13
2023-12-20T04:27:22.148Z,10.40
2023-12-20T04:29:50.500Z,8.48
2023-12-20T04:32:18.839Z,8.27
2023-12-20T04:34:47.259Z,7.88
2023-12-20T04:37:15.685Z,15.20
2023-12-20T04:39:45.491Z,14.35
2023-12-20T04:42:13.979Z,13.45
2023-12-20T04:44:42.344Z,18.67
2023-12-20T04:47:10.724Z,16.65
2023-12-20T04:49:39.148Z,15.73
2023-12-20T04:52:08.181Z,10.68
2023-12-20T04:54:36.550Z,13.55
2023-12-20T04:57:06.765Z,12.63
2023-12-20T04:59:35.181Z,7.30
2023-12-20T05:02:03.524Z,5.35
2023-12-20T05:04:31.985Z,4.68
2023-12-20T05:07:00.546Z,3.58
2023-12-20T05:09:28.975Z,3.55
2023-12-20T05:11:57.319Z,3.30
2023-12-20T05:14:28.281Z,3.30
2023-12-20T05:16:57.683Z,4.70
2023-12-20T05:19:26.438Z,3.65
2023-12-20T05:21:54.947Z,2.97
2023-12-20T05:24:23.340Z,2.95
2023-12-20T05:26:53.740Z,3.80
2023-12-20T05:29:22.716Z,3.80
2023-12-20T05:31:52.478Z,3.67
2023-12-20T05:34:21.565Z,2.90
2023-12-20T05:36:50.086Z,3.90
2023-12-20T05:39:18.506Z,5.88
2023-12-20T05:41:46.920Z,4.35
2023-12-20T05:44:15.294Z,4.20
2023-12-20T05:46:43.643Z,2.42
2023-12-20T05:49:14.858Z,4.43
2023-12-20T05:51:43.366Z,3.15
2023-12-20T05:54:12.233Z,3.80
2023-12-20T05:56:40.550Z,4.63
2023-12-20T05:59:09.228Z,8.35
2023-12-20T06:01:37.676Z,3.85
2023-12-20T06:04:06.326Z,3.50
2023-12-20T06:06:36.350Z,3.42
2023-12-20T06:09:05.217Z,6.32
2023-12-20T06:11:33.555Z,4.07
2023-12-20T06:14:01.956Z,2.97
2023-12-20T06:16:30.355Z,2.63
2023-12-20T06:18:58.908Z,3.08
2023-12-20T06:21:27.318Z,3.58
2023-12-20T06:23:57.118Z,3.70
2023-12-20T06:26:25.499Z,3.22
2023-12-20T06:28:53.942Z,3.60
2023-12-20T06:31:22.317Z,3.03
2023-12-20T06:33:58.508Z,3.65
2023-12-20T06:36:27.051Z,2.28
2023-12-20T06:38:56.831Z,3.05
2023-12-20T06:41:25.662Z,4.15
2023-12-20T06:43:54.337Z,3.20
2023-12-20T06:46:21.921Z,3.05
2023-12-20T06:48:50.515Z,3.05
2023-12-20T06:51:20.964Z,5.57
2023-12-20T06:53:49.340Z,2.33
2023-12-20T06:56:19.867Z,2.35
2023-12-20T06:58:48.827Z,3.03
2023-12-20T07:01:18.664Z,2.83
2023-12-20T07:03:47.376Z,5.95
2023-12-20T07:06:17.905Z,3.63
2023-12-20T07:08:46.485Z,3.03
2023-12-20T07:11:15.015Z,3.13
2023-12-20T07:13:44.778Z,4.57
2023-12-20T07:16:13.145Z,3.20
2023-12-20T07:18:41.805Z,2.88
2023-12-20T07:21:10.234Z,3.75
2023-12-20T07:23:38.578Z,2.95
2023-12-20T07:26:06.924Z,4.10
2023-12-20T07:28:35.732Z,6.20
2023-12-20T07:31:06.038Z,4.00
2023-12-20T07:33:39.359Z,6.03
2023-12-20T07:36:09.410Z,5.28
2023-12-20T07:38:38.027Z,4.03
2023-12-20T07:41:06.641Z,3.88
2023-12-20T07:43:35.357Z,6.10
2023-12-20T07:46:09.153Z,3.88
2023-12-20T07:48:38.284Z,3.33
2023-12-20T07:51:08.764Z,3.97
2023-12-20T07:53:37.306Z,3.10
2023-12-20T07:56:16.541Z,5.65
2023-12-20T07:58:51.741Z,3.35
2023-12-20T08:01:23.784Z,3.90
2023-12-20T08:03:52.979Z,4.30
2023-12-20T08:06:21.815Z,5.63
2023-12-20T08:08:55.862Z,11.43
2023-12-20T08:11:32.608Z,5.30
2023-12-20T08:14:01.461Z,3.65
2023-12-20T08:16:31.293Z,5.47
2023-12-20T08:18:59.900Z,4.95
2023-12-20T08:21:28.698Z,6.78
2023-12-20T08:23:57.175Z,4.65
2023-12-20T08:26:25.630Z,5.47
2023-12-20T08:28:54.115Z,4.47
2023-12-20T08:31:23.335Z,4.88
2023-12-20T08:33:54.510Z,3.47
2023-12-20T08:36:24.629Z,6.60
2023-12-20T08:38:53.604Z,3.42
2023-12-20T08:41:22.279Z,4.05
2023-12-20T08:43:50.732Z,6.70
2023-12-20T08:46:19.312Z,4.63
2023-12-20T08:48:47.975Z,3.67
2023-12-20T08:51:17.941Z,5.03
2023-12-20T08:53:48.838Z,3.70
2023-12-20T08:56:19.171Z,2.88
2023-12-20T08:58:48.069Z,3.95
2023-12-20T09:01:17.143Z,3.70
2023-12-20T09:03:45.812Z,5.25
2023-12-20T09:06:14.522Z,4.70
2023-12-20T09:08:44.326Z,6.85
2023-12-20T09:11:13.221Z,3.85
2023-12-20T09:13:42.067Z,5.95
2023-12-20T09:16:11.042Z,4.30
2023-12-20T09:18:39.520Z,3.33
2023-12-20T09:21:07.914Z,2.97
2023-12-20T09:23:37.793Z,3.42
2023-12-20T09:26:07.734Z,3.42
2023-12-20T09:28:38.400Z,4.65
2023-12-20T09:31:07.872Z,4.45
2023-12-20T09:33:36.586Z,2.60
2023-12-20T09:36:05.700Z,2.00
2023-12-20T09:38:34.157Z,3.17
2023-12-20T09:41:05.053Z,3.50
2023-12-20T09:43:40.141Z,1.98
2023-12-20T09:46:09.661Z,2.83
2023-12-20T09:48:39.658Z,4.75
2023-12-20T09:51:08.428Z,3.67
2023-12-20T09:53:41.615Z,4.55
2023-12-20T09:56:10.429Z,3.55
2023-12-20T09:58:41.554Z,4.68
2023-12-20T10:01:11.121Z,7.03
2023-12-20T10:03:43.366Z,8.05
2023-12-20T10:06:12.830Z,4.13
2023-12-20T10:08:41.613Z,3.60
2023-12-20T10:11:10.040Z,2.33
2023-12-20T10:13:42.685Z,2.13
2023-12-20T10:16:11.590Z,2.00
2023-12-20T10:18:40.451Z,2.38
2023-12-20T10:21:11.387Z,2.60
2023-12-20T10:23:42.125Z,2.28
2023-12-20T10:26:11.164Z,2.90
2023-12-20T10:28:41.052Z,2.83
2023-12-20T10:31:09.623Z,2.80
2023-12-20T10:33:38.248Z,2.63
2023-12-20T10:36:09.120Z,3.20
2023-12-20T10:38:40.927Z,3.58
2023-12-20T10:41:12.189Z,2.92
2023-12-20T10:43:42.995Z,2.03
2023-12-20T10:46:11.597Z,2.50
2023-12-20T10:48:41.867Z,2.13
2023-12-20T10:51:11.235Z,2.53
2023-12-20T10:53:42.989Z,2.70
2023-12-20T10:56:17.929Z,4.22
2023-12-20T10:58:48.925Z,2.70
2023-12-20T11:01:19.369Z,3.25
2023-12-20T11:03:52.256Z,3.65
2023-12-20T11:06:34.793Z,4.32
2023-12-20T11:09:14.700Z,2.60
2023-12-20T11:12:01.634Z,3.55
2023-12-20T11:14:41.401Z,2.63
2023-12-20T11:17:11.196Z,2.78
2023-12-20T11:20:13.375Z,2.28
2023-12-20T11:22:54.217Z,2.55
2023-12-20T11:25:23.030Z,3.38
2023-12-20T11:28:10.183Z,2.28
2023-12-20T11:30:49.889Z,2.72
2023-12-20T11:33:19.005Z,2.10
2023-12-20T11:35:49.609Z,3.97
2023-12-20T11:38:18.151Z,1.67
2023-12-20T11:40:46.742Z,2.25
2023-12-20T11:43:31.438Z,2.30
2023-12-20T11:46:07.086Z,1.75
2023-12-20T11:48:37.598Z,2.33
2023-12-20T11:51:11.910Z,1.25
2023-12-20T11:53:40.331Z,1.67
2023-12-20T11:56:09.449Z,1.85
2023-12-20T11:58:38.429Z,1.17
2023-12-20T12:01:10.207Z,2.03
2023-12-20T12:03:38.780Z,1.98
2023-12-20T12:06:09.024Z,2.08
2023-12-20T12:08:38.996Z,2.90
2023-12-20T12:11:07.744Z,3.65
2023-12-20T12:13:36.463Z,1.60
2023-12-20T12:16:06.685Z,1.60
2023-12-20T12:18:36.893Z,1.60
2023-12-20T12:21:10.579Z,1.77
2023-12-20T12:23:44.099Z,1.02
2023-12-20T12:26:12.537Z,1.05
2023-12-20T12:28:43.502Z,2.45
2023-12-20T12:31:15.925Z,3.92
2023-12-20T12:33:46.330Z,1.90
2023-12-20T12:36:17.306Z,1.48
2023-12-20T12:38:45.788Z,1.52
2023-12-20T12:41:16.517Z,1.50
2023-12-20T12:43:44.950Z,1.27
2023-12-20T12:46:13.871Z,1.83
2023-12-20T12:48:43.990Z,1.85
2023-12-20T12:51:15.766Z,2.33
2023-12-20T12:53:44.298Z,1.58
2023-12-20T12:56:14.942Z,2.92
2023-12-20T12:58:43.410Z,2.67
2023-12-20T13:01:11.842Z,2.15
2023-12-20T13:03:40.341Z,1.65
2023-12-20T13:06:10.167Z,2.20
2023-12-20T13:08:40.108Z,1.23
2023-12-20T13:11:08.695Z,1.52
2023-12-20T13:13:37.751Z,2.30
2023-12-20T13:16:07.337Z,2.10
2023-12-20T13:18:35.976Z,2.47
2023-12-20T13:21:04.637Z,1.30
2023-12-20T13:23:33.037Z,2.17
2023-12-20T13:26:02.843Z,2.22
2023-12-20T13:28:31.410Z,2.13
2023-12-20T13:31:00.082Z,2.13
2023-12-20T13:33:28.614Z,1.67
2023-12-20T13:35:59.516Z,3.97
2023-12-20T13:38:28.033Z,3.83
2023-12-20T13:40:56.401Z,2.33
2023-12-20T13:43:26.227Z,7.38
2023-12-20T13:45:54.760Z,3.67
2023-12-20T13:48:23.277Z,2.22
2023-12-20T13:50:51.700Z,2.78
2023-12-20T13:53:20.312Z,2.40
2023-12-20T13:55:48.707Z,5.50
2023-12-20T13:58:17.179Z,4.05
2023-12-20T14:00:47.142Z,2.75
2023-12-20T14:03:15.595Z,2.83
2023-12-20T14:05:44.223Z,1.55
2023-12-20T14:08:12.874Z,1.70
2023-12-20T14:10:41.472Z,1.67
2023-12-20T14:13:09.979Z,15.57
2023-12-20T14:15:38.550Z,2.25
2023-12-20T14:18:10.004Z,1.90
2023-12-20T14:20:40.775Z,2.92
2023-12-20T14:23:09.180Z,3.20
2023-12-20T14:25:46.176Z,6.10
2023-12-20T14:28:20.305Z,3.08
2023-12-20T14:30:50.415Z,2.20
2023-12-20T14:33:22.868Z,2.05
2023-12-20T14:35:51.689Z,2.13
2023-12-20T14:38:20.662Z,1.65
2023-12-20T14:40:49.171Z,1.75
2023-12-20T14:43:17.910Z,3.28
2023-12-20T14:45:46.714Z,3.17
2023-12-20T14:48:15.252Z,2.38
2023-12-20T14:50:45.456Z,2.33
2023-12-20T14:53:13.887Z,1.58
2023-12-20T14:55:42.361Z,3.65
2023-12-20T14:58:10.911Z,2.28
2023-12-20T15:00:39.884Z,3.70
2023-12-20T15:03:08.484Z,2.20
2023-12-20T15:05:37.608Z,4.68
2023-12-20T15:08:08.527Z,2.40
2023-12-20T15:10:37.414Z,2.85
2023-12-20T15:13:07.332Z,2.10
2023-12-20T15:15:36.141Z,1.92
2023-12-20T15:18:05.287Z,1.80
2023-12-20T15:20:35.002Z,2.70
2023-12-20T15:23:08.033Z,5.53
2023-12-20T15:25:37.964Z,2.03
2023-12-20T15:28:06.674Z,2.83
2023-12-20T15:30:37.581Z,4.35
2023-12-20T15:33:07.836Z,1.83
2023-12-20T15:35:36.614Z,1.77
2023-12-20T15:38:06.202Z,1.50
2023-12-20T15:40:34.782Z,6.50
2023-12-20T15:43:04.727Z,4.10
2023-12-20T15:45:33.126Z,1.90
2023-12-20T15:48:01.831Z,2.53
2023-12-20T15:50:30.336Z,4.07
2023-12-20T15:52:58.754Z,3.70
2023-12-20T15:55:27.290Z,2.35
2023-12-20T15:57:56.000Z,4.32
2023-12-20T16:00:25.833Z,4.00
2023-12-20T16:02:54.492Z,3.08
2023-12-20T16:05:23.430Z,4.78
2023-12-20T16:07:52.477Z,3.88
2023-12-20T16:10:21.288Z,1.80
2023-12-20T16:12:48.722Z,1.80
2023-12-20T16:15:19.063Z,1.80
2023-12-20T16:17:49.142Z,1.88
2023-12-20T16:20:18.217Z,2.17
2023-12-20T16:22:46.700Z,3.95
2023-12-20T16:25:15.113Z,3.38
2023-12-20T16:27:46.305Z,3.30
2023-12-20T16:30:16.988Z,7.53
2023-12-20T16:32:45.708Z,2.83
2023-12-20T16:35:15.969Z,3.08
2023-12-20T16:37:44.564Z,2.25
2023-12-20T16:40:14.159Z,2.60
2023-12-20T16:42:42.708Z,2.13
2023-12-20T16:45:11.761Z,2.75
2023-12-20T16:47:40.188Z,3.35
2023-12-20T16:50:10.890Z,3.83
2023-12-20T16:52:41.729Z,4.22
2023-12-20T16:55:12.860Z,3.03
2023-12-20T16:57:41.699Z,7.75
2023-12-20T17:00:11.068Z,3.03
2023-12-20T17:02:40.704Z,1.70
2023-12-20T17:05:11.537Z,2.30
2023-12-20T17:07:41.884Z,7.13
2023-12-20T17:10:11.182Z,2.45
2023-12-20T17:12:39.588Z,2.78
2023-12-20T17:15:09.222Z,2.45
2023-12-20T17:17:38.108Z,2.28
2023-12-20T17:20:08.819Z,1.77
2023-12-20T17:22:37.236Z,1.92
2023-12-20T17:25:12.604Z,2.53
2023-12-20T17:27:42.212Z,1.92
2023-12-20T17:30:12.214Z,2.83
2023-12-20T17:32:41.150Z,1.67
2023-12-20T17:35:10.184Z,2.75
2023-12-20T17:37:38.684Z,2.15
2023-12-20T17:40:12.260Z,3.20
2023-12-20T17:42:40.617Z,2.60
2023-12-20T17:45:09.444Z,2.17
2023-12-20T17:47:38.195Z,1.77
2023-12-20T17:50:08.247Z,2.25
2023-12-20T17:52:36.759Z,2.90
2023-12-20T17:55:07.232Z,2.15
2023-12-20T17:57:35.676Z,1.50
2023-12-20T18:00:16.419Z,1.90
2023-12-20T18:02:45.758Z,1.65
2023-12-20T18:05:16.229Z,2.13
2023-12-20T18:07:48.021Z,1.85
2023-12-20T18:10:20.585Z,7.55
2023-12-20T18:12:50.567Z,6.95
2023-12-20T18:15:20.979Z,3.78
2023-12-20T18:17:51.014Z,3.72
2023-12-20T18:20:20.994Z,3.53
2023-12-20T18:22:50.810Z,1.77
2023-12-20T18:25:23.766Z,4.40
2023-12-20T18:27:54.034Z,1.63
2023-12-20T18:30:26.041Z,2.85
2023-12-20T18:32:56.493Z,8.93
2023-12-20T18:35:27.761Z,1.33
2023-12-20T18:37:58.412Z,1.58
2023-12-20T18:40:30.650Z,2.50
2023-12-20T18:43:01.234Z,4.43
2023-12-20T18:45:32.627Z,4.68
2023-12-20T18:48:03.391Z,2.05
2023-12-20T18:50:34.318Z,4.65
2023-12-20T18:53:04.725Z,2.75
2023-12-20T18:55:36.869Z,4.25
2023-12-20T18:58:07.748Z,11.13
2023-12-20T19:00:39.263Z,2.72
2023-12-20T19:03:10.199Z,2.45
2023-12-20T19:05:40.753Z,2.85
2023-12-20T19:08:11.521Z,3.15
2023-12-20T19:10:43.804Z,4.15
2023-12-20T19:13:14.848Z,2.97
2023-12-20T19:15:47.699Z,6.85
2023-12-20T19:18:20.932Z,3.58
2023-12-20T19:20:51.643Z,2.33
2023-12-20T19:23:23.499Z,3.28
2023-12-20T19:25:55.898Z,2.53
2023-12-20T19:28:26.842Z,2.65
2023-12-20T19:30:59.701Z,3.08
2023-12-20T19:33:30.775Z,3.00
2023-12-20T19:36:01.532Z,4.55
2023-12-20T19:38:32.848Z,7.22
2023-12-20T19:41:05.893Z,5.50
2023-12-20T19:43:37.500Z,3.67
2023-12-20T19:46:09.257Z,4.88
2023-12-20T19:48:40.514Z,4.47
2023-12-20T19:51:12.865Z,3.42
2023-12-20T19:53:43.972Z,4.38
2023-12-20T19:56:17.734Z,2.63
2023-12-20T19:58:49.170Z,2.00
2023-12-20T20:01:20.695Z,2.55
2023-12-20T20:03:52.402Z,3.38
2023-12-20T20:06:23.863Z,4.88
2023-12-20T20:08:56.927Z,3.47
2023-12-20T20:11:35.314Z,3.53
2023-12-20T20:14:08.385Z,5.85
2023-12-20T20:16:39.601Z,3.67
2023-12-20T20:19:10.907Z,3.05
2023-12-20T20:21:45.000Z,5.05
2023-12-20T20:24:16.450Z,2.60
2023-12-20T20:26:49.337Z,2.97
2023-12-20T20:29:20.725Z,3.10
2023-12-20T20:31:51.846Z,9.00
2023-12-20T20:34:23.084Z,3.50
2023-12-20T20:36:53.662Z,2.58
2023-12-20T20:39:24.659Z,7.28
2023-12-20T20:41:57.288Z,2.92
2023-12-20T20:44:28.246Z,2.92
2023-12-20T20:46:59.621Z,2.33
2023-12-20T20:49:30.825Z,3.03
2023-12-20T20:52:01.691Z,2.97
2023-12-20T20:54:32.917Z,4.85
2023-12-20T20:57:05.512Z,3.60
2023-12-20T20:59:36.250Z,2.25
2023-12-20T21:02:05.036Z,3.58
2023-12-20T21:04:33.939Z,3.10
2023-12-20T21:07:02.529Z,3.38
2023-12-20T21:09:30.934Z,2.92
2023-12-20T21:11:59.335Z,2.83
2023-12-20T21:14:29.044Z,2.72
2023-12-20T21:16:57.458Z,2.78
2023-12-20T21:19:25.996Z,3.67
2023-12-20T21:21:54.429Z,3.13
2023-12-20T21:24:22.874Z,4.07
2023-12-20T21:26:51.214Z,2.35
2023-12-20T21:29:19.601Z,2.25
2023-12-20T21:31:49.453Z,1.98
2023-12-20T21:34:18.002Z,5.03
2023-12-20T21:36:46.469Z,4.35
2023-12-20T21:39:15.227Z,3.55
2023-12-20T21:41:43.616Z,3.63
2023-12-20T21:44:11.978Z,3.60
2023-12-20T21:46:41.750Z,2.70
2023-12-20T21:49:11.682Z,4.50
2023-12-20T21:51:40.140Z,2.28
2023-12-20T21:54:08.524Z,4.22
2023-12-20T21:56:37.916Z,1.88
2023-12-20T21:59:06.334Z,4.32
2023-12-20T22:01:34.851Z,3.15
2023-12-20T22:04:03.381Z,2.25
2023-12-20T22:06:33.421Z,3.88
2023-12-20T22:09:01.800Z,3.67
2023-12-20T22:11:30.165Z,3.55
2023-12-20T22:13:58.603Z,4.10
2023-12-20T22:16:27.102Z,1.10
2023-12-20T22:18:58.518Z,1.70
2023-12-20T22:21:26.940Z,2.55
2023-12-20T22:23:55.731Z,2.00
2023-12-20T22:26:24.352Z,1.77
2023-12-20T22:28:53.150Z,1.58
2023-12-20T22:31:21.608Z,3.22
2023-12-20T22:33:50.026Z,3.17
2023-12-20T22:36:19.744Z,2.15
2023-12-20T22:38:48.148Z,1.73
2023-12-20T22:41:18.295Z,1.52
2023-12-20T22:43:46.671Z,3.63
2023-12-20T22:46:15.271Z,1.58
2023-12-20T22:48:43.892Z,3.55
2023-12-20T22:51:12.327Z,2.38
2023-12-20T22:53:40.755Z,3.10
2023-12-20T22:56:09.698Z,2.53
2023-12-20T22:58:39.487Z,2.38
2023-12-20T23:01:08.033Z,2.72
2023-12-20T23:03:37.613Z,1.67
2023-12-20T23:06:07.039Z,2.40
2023-12-20T23:08:35.514Z,5.00
2023-12-20T23:11:03.931Z,1.95
2023-12-20T23:13:32.596Z,2.53
2023-12-20T23:16:02.511Z,1.88
2023-12-20T23:18:30.968Z,2.80
2023-12-20T23:20:59.426Z,2.50
2023-12-20T23:23:28.538Z,2.05
2023-12-20T23:25:56.940Z,1.52
2023-12-20T23:28:25.437Z,3.05
2023-12-20T23:30:53.887Z,1.30
2023-12-20T23:33:24.399Z,3.00
2023-12-20T23:35:52.872Z,2.03
2023-12-20T23:38:21.223Z,1.52
2023-12-20T23:40:49.613Z,1.10
2023-12-20T23:43:18.112Z,3.67
2023-12-20T23:45:46.514Z,1.30
2023-12-20T23:48:14.933Z,1.33
2023-12-20T23:50:44.831Z,1.15
2023-12-20T23:53:13.277Z,2.47
2023-12-20T23:55:41.946Z,1.60
2023-12-20T23:58:10.572Z,2.33
